sensor_id;sensor_type;location;lat;lon;timestamp;P1;durP1;ratioP1;P2;durP2;ratioP2
5616;SDS011;2830;50.656;7.568;2022-10-24T00:01:11;18.30;;;3.23;;
5616;SDS011;2830;50.656;7.568;2022-10-24T00:03:43;15.37;;;2.70;;
5616;SDS011;2830;50.656;7.568;2022-10-24T00:06:11;27.13;;;3.80;;
5616;SDS011;2830;50.656;7.568;2022-10-24T00:08:39;20.35;;;3.05;;
5616;SDS011;2830;50.656;7.568;2022-10-24T00:11:12;14.48;;;3.38;;
5616;SDS011;2830;50.656;7.568;2022-10-24T00:13:41;12.18;;;2.53;;
5616;SDS011;2830;50.656;7.568;2022-10-24T00:16:10;21.73;;;3.83;;
5616;SDS011;2830;50.656;7.568;2022-10-24T00:18:38;22.73;;;4.20;;
5616;SDS011;2830;50.656;7.568;2022-10-24T00:21:06;24.40;;;4.13;;
5616;SDS011;2830;50.656;7.568;2022-10-24T00:23:34;16.07;;;3.50;;
5616;SDS011;2830;50.656;7.568;2022-10-24T00:26:01;35.83;;;5.13;;
5616;SDS011;2830;50.656;7.568;2022-10-24T00:28:32;14.90;;;3.00;;
5616;SDS011;2830;50.656;7.568;2022-10-24T00:31:00;27.60;;;4.10;;
5616;SDS011;2830;50.656;7.568;2022-10-24T00:33:28;53.40;;;5.70;;
5616;SDS011;2830;50.656;7.568;2022-10-24T00:35:55;29.57;;;5.10;;
5616;SDS011;2830;50.656;7.568;2022-10-24T00:38:22;17.08;;;3.42;;
5616;SDS011;2830;50.656;7.568;2022-10-24T00:40:49;21.50;;;4.40;;
5616;SDS011;2830;50.656;7.568;2022-10-24T00:43:21;31.13;;;4.93;;
5616;SDS011;2830;50.656;7.568;2022-10-24T00:50:55;14.50;;;3.20;;
5616;SDS011;2830;50.656;7.568;2022-10-24T00:53:25;15.87;;;4.17;;
5616;SDS011;2830;50.656;7.568;2022-10-24T00:55:56;18.30;;;3.60;;
5616;SDS011;2830;50.656;7.568;2022-10-24T00:58:27;20.97;;;4.43;;
5616;SDS011;2830;50.656;7.568;2022-10-24T01:00:56;18.35;;;3.83;;
5616;SDS011;2830;50.656;7.568;2022-10-24T01:03:23;14.90;;;3.30;;
5616;SDS011;2830;50.656;7.568;2022-10-24T01:05:59;16.13;;;3.30;;
5616;SDS011;2830;50.656;7.568;2022-10-24T01:14:38;21.37;;;4.70;;
5616;SDS011;2830;50.656;7.568;2022-10-24T01:17:12;17.80;;;4.07;;
5616;SDS011;2830;50.656;7.568;2022-10-24T01:22:29;19.40;;;4.13;;
5616;SDS011;2830;50.656;7.568;2022-10-24T01:25:18;25.13;;;5.10;;
5616;SDS011;2830;50.656;7.568;2022-10-24T01:28:15;19.10;;;4.20;;
5616;SDS011;2830;50.656;7.568;2022-10-24T01:30:47;20.93;;;4.37;;
5616;SDS011;2830;50.656;7.568;2022-10-24T01:33:38;23.07;;;4.50;;
5616;SDS011;2830;50.656;7.568;2022-10-24T01:36:15;22.70;;;5.10;;
5616;SDS011;2830;50.656;7.568;2022-10-24T01:38:53;22.83;;;5.33;;
5616;SDS011;2830;50.656;7.568;2022-10-24T01:45:13;16.87;;;4.83;;
5616;SDS011;2830;50.656;7.568;2022-10-24T01:47:45;17.13;;;4.33;;
5616;SDS011;2830;50.656;7.568;2022-10-24T01:50:16;18.90;;;4.50;;
5616;SDS011;2830;50.656;7.568;2022-10-24T01:52:45;27.73;;;5.10;;
5616;SDS011;2830;50.656;7.568;2022-10-24T01:55:13;30.67;;;4.47;;
5616;SDS011;2830;50.656;7.568;2022-10-24T01:57:40;18.80;;;4.47;;
5616;SDS011;2830;50.656;7.568;2022-10-24T02:00:10;21.70;;;4.30;;
5616;SDS011;2830;50.656;7.568;2022-10-24T02:02:45;21.47;;;6.43;;
5616;SDS011;2830;50.656;7.568;2022-10-24T02:05:20;19.70;;;4.07;;
5616;SDS011;2830;50.656;7.568;2022-10-24T02:08:04;28.20;;;4.60;;
5616;SDS011;2830;50.656;7.568;2022-10-24T02:10:43;19.00;;;4.00;;
5616;SDS011;2830;50.656;7.568;2022-10-24T02:13:18;23.10;;;4.80;;
5616;SDS011;2830;50.656;7.568;2022-10-24T02:16:02;21.37;;;4.70;;
5616;SDS011;2830;50.656;7.568;2022-10-24T02:18:29;17.17;;;4.18;;
5616;SDS011;2830;50.656;7.568;2022-10-24T02:20:58;21.20;;;5.13;;
5616;SDS011;2830;50.656;7.568;2022-10-24T02:23:33;16.23;;;3.57;;
5616;SDS011;2830;50.656;7.568;2022-10-24T02:26:31;18.10;;;4.30;;
5616;SDS011;2830;50.656;7.568;2022-10-24T02:29:16;21.10;;;4.70;;
5616;SDS011;2830;50.656;7.568;2022-10-24T02:31:49;20.07;;;5.40;;
5616;SDS011;2830;50.656;7.568;2022-10-24T02:34:20;21.33;;;5.70;;
5616;SDS011;2830;50.656;7.568;2022-10-24T02:36:49;21.00;;;5.60;;
5616;SDS011;2830;50.656;7.568;2022-10-24T02:39:19;20.97;;;6.00;;
5616;SDS011;2830;50.656;7.568;2022-10-24T02:41:48;26.90;;;5.80;;
5616;SDS011;2830;50.656;7.568;2022-10-24T02:44:20;23.33;;;5.07;;
5616;SDS011;2830;50.656;7.568;2022-10-24T02:46:49;31.30;;;6.40;;
5616;SDS011;2830;50.656;7.568;2022-10-24T02:49:20;27.77;;;5.88;;
5616;SDS011;2830;50.656;7.568;2022-10-24T02:51:47;17.63;;;5.70;;
5616;SDS011;2830;50.656;7.568;2022-10-24T02:54:16;25.10;;;5.87;;
5616;SDS011;2830;50.656;7.568;2022-10-24T02:56:45;23.55;;;6.00;;
5616;SDS011;2830;50.656;7.568;2022-10-24T02:59:15;28.13;;;5.53;;
5616;SDS011;2830;50.656;7.568;2022-10-24T03:01:42;21.23;;;5.20;;
5616;SDS011;2830;50.656;7.568;2022-10-24T03:04:10;21.13;;;5.50;;
5616;SDS011;2830;50.656;7.568;2022-10-24T03:06:37;21.00;;;6.07;;
5616;SDS011;2830;50.656;7.568;2022-10-24T03:09:04;25.10;;;6.23;;
5616;SDS011;2830;50.656;7.568;2022-10-24T03:11:31;26.02;;;5.25;;
5616;SDS011;2830;50.656;7.568;2022-10-24T03:13:59;19.43;;;4.50;;
5616;SDS011;2830;50.656;7.568;2022-10-24T03:16:25;26.20;;;4.40;;
5616;SDS011;2830;50.656;7.568;2022-10-24T03:18:54;19.90;;;4.60;;
5616;SDS011;2830;50.656;7.568;2022-10-24T03:21:20;24.27;;;5.30;;
5616;SDS011;2830;50.656;7.568;2022-10-24T03:23:47;21.40;;;4.50;;
5616;SDS011;2830;50.656;7.568;2022-10-24T03:26:14;19.00;;;3.70;;
5616;SDS011;2830;50.656;7.568;2022-10-24T03:28:41;44.70;;;4.80;;
5616;SDS011;2830;50.656;7.568;2022-10-24T03:31:07;19.30;;;3.23;;
5616;SDS011;2830;50.656;7.568;2022-10-24T03:33:34;18.90;;;3.38;;
5616;SDS011;2830;50.656;7.568;2022-10-24T03:36:01;19.70;;;4.10;;
5616;SDS011;2830;50.656;7.568;2022-10-24T03:38:27;23.23;;;4.77;;
5616;SDS011;2830;50.656;7.568;2022-10-24T03:40:54;17.20;;;3.87;;
5616;SDS011;2830;50.656;7.568;2022-10-24T03:43:21;20.97;;;4.60;;
5616;SDS011;2830;50.656;7.568;2022-10-24T03:45:47;18.65;;;3.60;;
5616;SDS011;2830;50.656;7.568;2022-10-24T03:48:15;20.13;;;5.20;;
5616;SDS011;2830;50.656;7.568;2022-10-24T03:50:41;26.97;;;5.20;;
5616;SDS011;2830;50.656;7.568;2022-10-24T03:53:08;21.80;;;5.17;;
5616;SDS011;2830;50.656;7.568;2022-10-24T03:55:35;23.03;;;4.20;;
5616;SDS011;2830;50.656;7.568;2022-10-24T03:58:01;24.80;;;4.67;;
5616;SDS011;2830;50.656;7.568;2022-10-24T04:00:28;24.97;;;4.50;;
5616;SDS011;2830;50.656;7.568;2022-10-24T04:02:55;29.48;;;5.25;;
5616;SDS011;2830;50.656;7.568;2022-10-24T04:05:21;19.37;;;4.80;;
5616;SDS011;2830;50.656;7.568;2022-10-24T04:07:48;17.17;;;4.10;;
5616;SDS011;2830;50.656;7.568;2022-10-24T04:10:15;30.93;;;6.53;;
5616;SDS011;2830;50.656;7.568;2022-10-24T04:12:41;17.87;;;4.90;;
5616;SDS011;2830;50.656;7.568;2022-10-24T04:15:08;20.43;;;5.33;;
5616;SDS011;2830;50.656;7.568;2022-10-24T04:17:35;28.27;;;6.20;;
5616;SDS011;2830;50.656;7.568;2022-10-24T04:20:02;38.83;;;11.97;;
5616;SDS011;2830;50.656;7.568;2022-10-24T04:22:29;27.27;;;7.53;;
5616;SDS011;2830;50.656;7.568;2022-10-24T04:24:56;26.20;;;7.40;;
5616;SDS011;2830;50.656;7.568;2022-10-24T04:27:23;25.60;;;8.20;;
5616;SDS011;2830;50.656;7.568;2022-10-24T04:29:49;27.63;;;9.23;;
5616;SDS011;2830;50.656;7.568;2022-10-24T04:32:16;30.57;;;8.40;;
5616;SDS011;2830;50.656;7.568;2022-10-24T04:34:43;32.20;;;7.07;;
5616;SDS011;2830;50.656;7.568;2022-10-24T04:37:10;37.30;;;6.90;;
5616;SDS011;2830;50.656;7.568;2022-10-24T04:39:36;20.63;;;5.60;;
5616;SDS011;2830;50.656;7.568;2022-10-24T04:42:03;24.07;;;5.83;;
5616;SDS011;2830;50.656;7.568;2022-10-24T04:44:29;19.20;;;5.93;;
5616;SDS011;2830;50.656;7.568;2022-10-24T04:46:56;23.50;;;6.20;;
5616;SDS011;2830;50.656;7.568;2022-10-24T04:49:23;22.33;;;5.70;;
5616;SDS011;2830;50.656;7.568;2022-10-24T04:51:49;23.63;;;6.27;;
5616;SDS011;2830;50.656;7.568;2022-10-24T04:54:16;21.03;;;5.07;;
5616;SDS011;2830;50.656;7.568;2022-10-24T04:56:42;46.67;;;6.35;;
5616;SDS011;2830;50.656;7.568;2022-10-24T04:59:09;21.50;;;4.63;;
5616;SDS011;2830;50.656;7.568;2022-10-24T05:01:36;26.73;;;5.20;;
5616;SDS011;2830;50.656;7.568;2022-10-24T05:04:02;18.83;;;3.97;;
5616;SDS011;2830;50.656;7.568;2022-10-24T05:06:29;15.13;;;4.30;;
5616;SDS011;2830;50.656;7.568;2022-10-24T05:08:56;28.17;;;5.00;;
5616;SDS011;2830;50.656;7.568;2022-10-24T05:11:22;21.97;;;5.00;;
5616;SDS011;2830;50.656;7.568;2022-10-24T05:13:49;24.90;;;4.87;;
5616;SDS011;2830;50.656;7.568;2022-10-24T05:16:16;18.70;;;4.13;;
5616;SDS011;2830;50.656;7.568;2022-10-24T05:18:42;23.10;;;4.60;;
5616;SDS011;2830;50.656;7.568;2022-10-24T05:21:10;19.17;;;5.37;;
5616;SDS011;2830;50.656;7.568;2022-10-24T05:23:37;28.90;;;5.20;;
5616;SDS011;2830;50.656;7.568;2022-10-24T05:26:03;36.40;;;5.33;;
5616;SDS011;2830;50.656;7.568;2022-10-24T05:28:30;18.63;;;4.53;;
5616;SDS011;2830;50.656;7.568;2022-10-24T05:30:57;23.60;;;4.60;;
5616;SDS011;2830;50.656;7.568;2022-10-24T05:33:24;34.00;;;5.60;;
5616;SDS011;2830;50.656;7.568;2022-10-24T05:35:50;22.60;;;5.33;;
5616;SDS011;2830;50.656;7.568;2022-10-24T05:38:17;26.13;;;6.15;;
5616;SDS011;2830;50.656;7.568;2022-10-24T05:40:44;20.40;;;4.87;;
5616;SDS011;2830;50.656;7.568;2022-10-24T05:43:14;28.87;;;10.50;;
5616;SDS011;2830;50.656;7.568;2022-10-24T05:45:41;28.80;;;6.60;;
5616;SDS011;2830;50.656;7.568;2022-10-24T05:48:08;26.13;;;5.73;;
5616;SDS011;2830;50.656;7.568;2022-10-24T05:50:35;26.43;;;6.47;;
5616;SDS011;2830;50.656;7.568;2022-10-24T05:53:02;23.80;;;6.50;;
5616;SDS011;2830;50.656;7.568;2022-10-24T05:55:28;26.13;;;5.43;;
5616;SDS011;2830;50.656;7.568;2022-10-24T05:57:56;33.50;;;6.43;;
5616;SDS011;2830;50.656;7.568;2022-10-24T06:00:23;18.80;;;5.00;;
5616;SDS011;2830;50.656;7.568;2022-10-24T06:02:49;59.67;;;6.00;;
5616;SDS011;2830;50.656;7.568;2022-10-24T06:05:16;19.43;;;4.50;;
5616;SDS011;2830;50.656;7.568;2022-10-24T06:07:43;20.17;;;4.50;;
5616;SDS011;2830;50.656;7.568;2022-10-24T06:10:11;21.13;;;5.17;;
5616;SDS011;2830;50.656;7.568;2022-10-24T06:12:38;20.20;;;4.10;;
5616;SDS011;2830;50.656;7.568;2022-10-24T06:15:05;20.23;;;4.27;;
5616;SDS011;2830;50.656;7.568;2022-10-24T06:17:33;19.47;;;5.07;;
5616;SDS011;2830;50.656;7.568;2022-10-24T06:20:00;20.83;;;4.25;;
5616;SDS011;2830;50.656;7.568;2022-10-24T06:22:27;17.50;;;4.57;;
5616;SDS011;2830;50.656;7.568;2022-10-24T06:24:55;21.67;;;4.40;;
5616;SDS011;2830;50.656;7.568;2022-10-24T06:27:22;19.70;;;4.23;;
5616;SDS011;2830;50.656;7.568;2022-10-24T06:29:48;19.87;;;4.53;;
5616;SDS011;2830;50.656;7.568;2022-10-24T06:32:15;22.37;;;4.07;;
5616;SDS011;2830;50.656;7.568;2022-10-24T06:34:42;19.50;;;4.17;;
5616;SDS011;2830;50.656;7.568;2022-10-24T06:37:08;20.92;;;4.53;;
5616;SDS011;2830;50.656;7.568;2022-10-24T06:39:35;22.70;;;5.10;;
5616;SDS011;2830;50.656;7.568;2022-10-24T06:42:02;16.97;;;4.40;;
5616;SDS011;2830;50.656;7.568;2022-10-24T06:44:28;20.67;;;3.93;;
5616;SDS011;2830;50.656;7.568;2022-10-24T06:46:55;20.20;;;3.87;;
5616;SDS011;2830;50.656;7.568;2022-10-24T06:49:22;19.03;;;4.80;;
5616;SDS011;2830;50.656;7.568;2022-10-24T06:51:49;22.40;;;4.33;;
5616;SDS011;2830;50.656;7.568;2022-10-24T06:54:15;19.20;;;3.53;;
5616;SDS011;2830;50.656;7.568;2022-10-24T06:56:42;30.60;;;4.53;;
5616;SDS011;2830;50.656;7.568;2022-10-24T06:59:09;20.60;;;4.05;;
5616;SDS011;2830;50.656;7.568;2022-10-24T07:01:38;24.88;;;4.28;;
5616;SDS011;2830;50.656;7.568;2022-10-24T07:04:05;21.67;;;3.30;;
5616;SDS011;2830;50.656;7.568;2022-10-24T07:06:33;17.20;;;2.63;;
5616;SDS011;2830;50.656;7.568;2022-10-24T07:09:00;15.83;;;3.20;;
5616;SDS011;2830;50.656;7.568;2022-10-24T07:11:28;18.10;;;3.27;;
5616;SDS011;2830;50.656;7.568;2022-10-24T07:13:55;19.30;;;3.60;;
5616;SDS011;2830;50.656;7.568;2022-10-24T07:16:27;16.60;;;4.10;;
5616;SDS011;2830;50.656;7.568;2022-10-24T07:18:54;22.40;;;3.10;;
5616;SDS011;2830;50.656;7.568;2022-10-24T07:21:22;15.30;;;2.50;;
5616;SDS011;2830;50.656;7.568;2022-10-24T07:23:51;18.63;;;3.17;;
5616;SDS011;2830;50.656;7.568;2022-10-24T07:26:19;20.50;;;3.27;;
5616;SDS011;2830;50.656;7.568;2022-10-24T07:28:47;20.93;;;3.03;;
5616;SDS011;2830;50.656;7.568;2022-10-24T07:31:22;16.90;;;2.87;;
5616;SDS011;2830;50.656;7.568;2022-10-24T07:33:51;18.08;;;3.45;;
5616;SDS011;2830;50.656;7.568;2022-10-24T07:36:19;20.83;;;3.70;;
5616;SDS011;2830;50.656;7.568;2022-10-24T07:38:49;13.07;;;2.47;;
5616;SDS011;2830;50.656;7.568;2022-10-24T07:41:17;18.30;;;2.70;;
5616;SDS011;2830;50.656;7.568;2022-10-24T07:43:44;15.37;;;3.30;;
5616;SDS011;2830;50.656;7.568;2022-10-24T07:46:12;17.20;;;2.83;;
5616;SDS011;2830;50.656;7.568;2022-10-24T07:48:40;18.60;;;3.10;;
5616;SDS011;2830;50.656;7.568;2022-10-24T07:51:08;15.57;;;2.27;;
5616;SDS011;2830;50.656;7.568;2022-10-24T07:53:37;14.07;;;1.97;;
5616;SDS011;2830;50.656;7.568;2022-10-24T07:56:04;14.67;;;2.87;;
5616;SDS011;2830;50.656;7.568;2022-10-24T07:58:36;17.40;;;2.27;;
5616;SDS011;2830;50.656;7.568;2022-10-24T08:01:04;16.70;;;2.33;;
5616;SDS011;2830;50.656;7.568;2022-10-24T08:03:33;15.87;;;3.00;;
5616;SDS011;2830;50.656;7.568;2022-10-24T08:06:02;17.60;;;2.20;;
5616;SDS011;2830;50.656;7.568;2022-10-24T08:08:30;18.23;;;2.93;;
5616;SDS011;2830;50.656;7.568;2022-10-24T08:11:06;16.30;;;2.40;;
5616;SDS011;2830;50.656;7.568;2022-10-24T08:13:38;18.75;;;2.67;;
5616;SDS011;2830;50.656;7.568;2022-10-24T08:16:10;18.83;;;2.17;;
5616;SDS011;2830;50.656;7.568;2022-10-24T08:18:38;16.87;;;1.83;;
5616;SDS011;2830;50.656;7.568;2022-10-24T08:21:06;21.17;;;3.03;;
5616;SDS011;2830;50.656;7.568;2022-10-24T08:23:40;18.07;;;2.17;;
5616;SDS011;2830;50.656;7.568;2022-10-24T08:26:14;15.33;;;2.00;;
5616;SDS011;2830;50.656;7.568;2022-10-24T08:28:43;17.83;;;2.60;;
5616;SDS011;2830;50.656;7.568;2022-10-24T08:31:12;16.83;;;2.30;;
5616;SDS011;2830;50.656;7.568;2022-10-24T08:33:41;15.30;;;1.90;;
5616;SDS011;2830;50.656;7.568;2022-10-24T08:36:16;16.10;;;1.80;;
5616;SDS011;2830;50.656;7.568;2022-10-24T08:38:52;17.07;;;1.97;;
5616;SDS011;2830;50.656;7.568;2022-10-24T08:41:38;13.87;;;2.20;;
5616;SDS011;2830;50.656;7.568;2022-10-24T08:44:19;15.57;;;2.40;;
5616;SDS011;2830;50.656;7.568;2022-10-24T08:46:56;16.60;;;2.30;;
5616;SDS011;2830;50.656;7.568;2022-10-24T08:49:40;15.95;;;1.95;;
5616;SDS011;2830;50.656;7.568;2022-10-24T08:52:29;16.63;;;2.20;;
5616;SDS011;2830;50.656;7.568;2022-10-24T08:55:11;19.77;;;4.50;;
5616;SDS011;2830;50.656;7.568;2022-10-24T08:58:11;14.23;;;1.80;;
5616;SDS011;2830;50.656;7.568;2022-10-24T09:00:42;17.20;;;1.90;;
5616;SDS011;2830;50.656;7.568;2022-10-24T09:06:21;18.50;;;2.50;;
5616;SDS011;2830;50.656;7.568;2022-10-24T09:08:54;15.70;;;2.03;;
5616;SDS011;2830;50.656;7.568;2022-10-24T09:14:06;16.50;;;2.37;;
5616;SDS011;2830;50.656;7.568;2022-10-24T09:16:42;17.40;;;1.90;;
5616;SDS011;2830;50.656;7.568;2022-10-24T09:19:14;18.27;;;1.73;;
5616;SDS011;2830;50.656;7.568;2022-10-24T09:21:44;17.53;;;1.60;;
5616;SDS011;2830;50.656;7.568;2022-10-24T09:24:36;15.53;;;2.07;;
5616;SDS011;2830;50.656;7.568;2022-10-24T09:27:05;14.60;;;1.50;;
5616;SDS011;2830;50.656;7.568;2022-10-24T09:29:36;15.10;;;2.37;;
5616;SDS011;2830;50.656;7.568;2022-10-24T09:32:03;15.93;;;1.57;;
5616;SDS011;2830;50.656;7.568;2022-10-24T09:34:30;17.37;;;2.03;;
5616;SDS011;2830;50.656;7.568;2022-10-24T09:36:56;18.58;;;2.35;;
5616;SDS011;2830;50.656;7.568;2022-10-24T09:39:32;18.30;;;2.07;;
5616;SDS011;2830;50.656;7.568;2022-10-24T09:42:02;21.27;;;2.27;;
5616;SDS011;2830;50.656;7.568;2022-10-24T09:44:30;17.77;;;2.00;;
5616;SDS011;2830;50.656;7.568;2022-10-24T09:47:01;16.25;;;2.10;;
5616;SDS011;2830;50.656;7.568;2022-10-24T09:49:31;21.60;;;2.30;;
5616;SDS011;2830;50.656;7.568;2022-10-24T09:52:05;22.33;;;6.93;;
5616;SDS011;2830;50.656;7.568;2022-10-24T09:54:44;16.10;;;1.70;;
5616;SDS011;2830;50.656;7.568;2022-10-24T09:59:46;15.20;;;1.90;;
5616;SDS011;2830;50.656;7.568;2022-10-24T10:07:39;14.73;;;1.70;;
5616;SDS011;2830;50.656;7.568;2022-10-24T10:12:45;17.40;;;2.20;;
5616;SDS011;2830;50.656;7.568;2022-10-24T10:15:24;18.93;;;2.43;;
5616;SDS011;2830;50.656;7.568;2022-10-24T10:18:27;16.43;;;1.90;;
5616;SDS011;2830;50.656;7.568;2022-10-24T10:21:08;17.15;;;1.67;;
5616;SDS011;2830;50.656;7.568;2022-10-24T10:23:41;18.77;;;1.63;;
5616;SDS011;2830;50.656;7.568;2022-10-24T10:26:18;13.70;;;1.40;;
5616;SDS011;2830;50.656;7.568;2022-10-24T10:28:51;20.60;;;1.70;;
5616;SDS011;2830;50.656;7.568;2022-10-24T10:31:49;15.57;;;1.50;;
5616;SDS011;2830;50.656;7.568;2022-10-24T10:34:29;22.33;;;2.00;;
5616;SDS011;2830;50.656;7.568;2022-10-24T10:42:21;21.85;;;1.70;;
5616;SDS011;2830;50.656;7.568;2022-10-24T10:47:48;14.30;;;1.37;;
5616;SDS011;2830;50.656;7.568;2022-10-24T10:50:27;15.83;;;1.73;;
5616;SDS011;2830;50.656;7.568;2022-10-24T10:53:20;17.10;;;1.47;;
5616;SDS011;2830;50.656;7.568;2022-10-24T10:59:13;17.63;;;1.50;;
5616;SDS011;2830;50.656;7.568;2022-10-24T11:02:13;16.17;;;1.77;;
5616;SDS011;2830;50.656;7.568;2022-10-24T11:04:46;17.07;;;1.50;;
5616;SDS011;2830;50.656;7.568;2022-10-24T11:10:00;20.43;;;2.60;;
5616;SDS011;2830;50.656;7.568;2022-10-24T11:12:33;17.35;;;2.00;;
5616;SDS011;2830;50.656;7.568;2022-10-24T11:18:10;19.30;;;1.77;;
5616;SDS011;2830;50.656;7.568;2022-10-24T11:21:03;18.00;;;2.33;;
5616;SDS011;2830;50.656;7.568;2022-10-24T11:26:26;21.50;;;2.27;;
5616;SDS011;2830;50.656;7.568;2022-10-24T11:28:58;16.35;;;1.75;;
5616;SDS011;2830;50.656;7.568;2022-10-24T11:31:27;18.90;;;2.00;;
5616;SDS011;2830;50.656;7.568;2022-10-24T11:34:01;19.93;;;2.23;;
5616;SDS011;2830;50.656;7.568;2022-10-24T11:36:45;20.65;;;1.70;;
5616;SDS011;2830;50.656;7.568;2022-10-24T11:39:24;18.43;;;1.93;;
5616;SDS011;2830;50.656;7.568;2022-10-24T11:45:03;20.23;;;2.40;;
5616;SDS011;2830;50.656;7.568;2022-10-24T11:50:26;17.93;;;1.77;;
5616;SDS011;2830;50.656;7.568;2022-10-24T11:55:49;24.40;;;2.53;;
5616;SDS011;2830;50.656;7.568;2022-10-24T11:58:22;20.80;;;2.00;;
5616;SDS011;2830;50.656;7.568;2022-10-24T12:03:44;18.10;;;1.80;;
5616;SDS011;2830;50.656;7.568;2022-10-24T12:15:05;17.60;;;1.80;;
5616;SDS011;2830;50.656;7.568;2022-10-24T12:20:49;18.67;;;1.53;;
5616;SDS011;2830;50.656;7.568;2022-10-24T12:23:22;17.50;;;1.53;;
5616;SDS011;2830;50.656;7.568;2022-10-24T12:28:30;17.00;;;2.63;;
5616;SDS011;2830;50.656;7.568;2022-10-24T12:39:28;17.30;;;1.80;;
5616;SDS011;2830;50.656;7.568;2022-10-24T12:41:56;15.20;;;1.37;;
5616;SDS011;2830;50.656;7.568;2022-10-24T12:47:00;22.43;;;1.97;;
5616;SDS011;2830;50.656;7.568;2022-10-24T12:53:00;20.73;;;2.03;;
5616;SDS011;2830;50.656;7.568;2022-10-24T12:58:21;18.33;;;1.93;;
5616;SDS011;2830;50.656;7.568;2022-10-24T13:00:56;14.70;;;1.40;;
5616;SDS011;2830;50.656;7.568;2022-10-24T13:08:55;19.37;;;1.80;;
5616;SDS011;2830;50.656;7.568;2022-10-24T13:11:50;20.60;;;2.10;;
5616;SDS011;2830;50.656;7.568;2022-10-24T13:14:41;15.90;;;1.80;;
5616;SDS011;2830;50.656;7.568;2022-10-24T13:20:03;20.53;;;2.50;;
5616;SDS011;2830;50.656;7.568;2022-10-24T13:22:39;22.00;;;1.97;;
5616;SDS011;2830;50.656;7.568;2022-10-24T13:25:53;18.53;;;1.60;;
5616;SDS011;2830;50.656;7.568;2022-10-24T13:36:07;16.83;;;2.57;;
5616;SDS011;2830;50.656;7.568;2022-10-24T13:38:53;18.90;;;2.33;;
5616;SDS011;2830;50.656;7.568;2022-10-24T13:41:33;16.13;;;1.60;;
5616;SDS011;2830;50.656;7.568;2022-10-24T13:44:06;15.63;;;1.55;;
5616;SDS011;2830;50.656;7.568;2022-10-24T13:46:48;20.40;;;2.83;;
5616;SDS011;2830;50.656;7.568;2022-10-24T13:49:27;15.73;;;1.60;;
5616;SDS011;2830;50.656;7.568;2022-10-24T13:52:41;18.43;;;2.10;;
5616;SDS011;2830;50.656;7.568;2022-10-24T13:54:48;23.80;;;2.33;;
5616;SDS011;2830;50.656;7.568;2022-10-24T13:57:26;19.50;;;2.03;;
5616;SDS011;2830;50.656;7.568;2022-10-24T13:59:59;20.20;;;1.90;;
5616;SDS011;2830;50.656;7.568;2022-10-24T14:02:31;16.83;;;1.50;;
5616;SDS011;2830;50.656;7.568;2022-10-24T14:05:03;23.40;;;2.90;;
5616;SDS011;2830;50.656;7.568;2022-10-24T14:07:30;15.80;;;1.80;;
5616;SDS011;2830;50.656;7.568;2022-10-24T14:10:20;20.50;;;1.90;;
5616;SDS011;2830;50.656;7.568;2022-10-24T14:12:48;18.35;;;1.63;;
5616;SDS011;2830;50.656;7.568;2022-10-24T14:15:24;16.70;;;1.60;;
5616;SDS011;2830;50.656;7.568;2022-10-24T14:17:59;17.43;;;2.27;;
5616;SDS011;2830;50.656;7.568;2022-10-24T14:20:29;18.85;;;1.50;;
5616;SDS011;2830;50.656;7.568;2022-10-24T14:23:00;17.57;;;1.53;;
5616;SDS011;2830;50.656;7.568;2022-10-24T14:25:33;20.95;;;2.58;;
5616;SDS011;2830;50.656;7.568;2022-10-24T14:28:10;21.93;;;1.50;;
5616;SDS011;2830;50.656;7.568;2022-10-24T14:30:50;18.17;;;2.10;;
5616;SDS011;2830;50.656;7.568;2022-10-24T14:33:21;20.13;;;1.97;;
5616;SDS011;2830;50.656;7.568;2022-10-24T14:35:50;23.40;;;2.75;;
5616;SDS011;2830;50.656;7.568;2022-10-24T14:38:23;18.83;;;1.73;;
5616;SDS011;2830;50.656;7.568;2022-10-24T14:40:51;22.77;;;1.90;;
5616;SDS011;2830;50.656;7.568;2022-10-24T14:43:34;14.57;;;1.73;;
5616;SDS011;2830;50.656;7.568;2022-10-24T14:48:34;18.53;;;1.87;;
5616;SDS011;2830;50.656;7.568;2022-10-24T14:51:03;19.43;;;1.83;;
5616;SDS011;2830;50.656;7.568;2022-10-24T14:53:49;17.60;;;2.03;;
5616;SDS011;2830;50.656;7.568;2022-10-24T14:56:19;16.80;;;2.13;;
5616;SDS011;2830;50.656;7.568;2022-10-24T14:58:49;15.37;;;2.10;;
5616;SDS011;2830;50.656;7.568;2022-10-24T15:01:18;27.90;;;2.33;;
5616;SDS011;2830;50.656;7.568;2022-10-24T15:03:55;17.43;;;2.30;;
5616;SDS011;2830;50.656;7.568;2022-10-24T15:06:24;16.60;;;2.17;;
5616;SDS011;2830;50.656;7.568;2022-10-24T15:09:03;16.53;;;1.57;;
5616;SDS011;2830;50.656;7.568;2022-10-24T15:11:30;20.03;;;2.33;;
5616;SDS011;2830;50.656;7.568;2022-10-24T15:14:04;22.70;;;2.77;;
5616;SDS011;2830;50.656;7.568;2022-10-24T15:16:52;17.17;;;1.80;;
5616;SDS011;2830;50.656;7.568;2022-10-24T15:19:19;25.40;;;2.50;;
5616;SDS011;2830;50.656;7.568;2022-10-24T15:21:45;18.80;;;2.07;;
5616;SDS011;2830;50.656;7.568;2022-10-24T15:24:19;18.00;;;1.90;;
5616;SDS011;2830;50.656;7.568;2022-10-24T15:26:49;16.85;;;2.35;;
5616;SDS011;2830;50.656;7.568;2022-10-24T15:29:20;17.60;;;1.90;;
5616;SDS011;2830;50.656;7.568;2022-10-24T15:31:48;16.80;;;1.90;;
5616;SDS011;2830;50.656;7.568;2022-10-24T15:34:17;18.30;;;2.30;;
5616;SDS011;2830;50.656;7.568;2022-10-24T15:36:46;17.27;;;2.77;;
5616;SDS011;2830;50.656;7.568;2022-10-24T15:39:15;17.53;;;1.80;;
5616;SDS011;2830;50.656;7.568;2022-10-24T15:41:43;21.83;;;2.43;;
5616;SDS011;2830;50.656;7.568;2022-10-24T15:46:45;16.90;;;2.27;;
5616;SDS011;2830;50.656;7.568;2022-10-24T15:49:13;19.40;;;2.37;;
5616;SDS011;2830;50.656;7.568;2022-10-24T15:51:40;17.67;;;1.83;;
5616;SDS011;2830;50.656;7.568;2022-10-24T15:54:15;18.80;;;2.37;;
5616;SDS011;2830;50.656;7.568;2022-10-24T15:56:43;14.93;;;1.87;;
5616;SDS011;2830;50.656;7.568;2022-10-24T15:59:10;23.23;;;2.37;;
5616;SDS011;2830;50.656;7.568;2022-10-24T16:01:38;17.05;;;2.00;;
5616;SDS011;2830;50.656;7.568;2022-10-24T16:04:26;22.27;;;2.27;;
5616;SDS011;2830;50.656;7.568;2022-10-24T16:06:53;18.23;;;2.20;;
5616;SDS011;2830;50.656;7.568;2022-10-24T16:09:21;18.80;;;2.20;;
5616;SDS011;2830;50.656;7.568;2022-10-24T16:11:51;21.33;;;1.93;;
5616;SDS011;2830;50.656;7.568;2022-10-24T16:14:19;19.90;;;2.30;;
5616;SDS011;2830;50.656;7.568;2022-10-24T16:16:47;21.80;;;2.53;;
5616;SDS011;2830;50.656;7.568;2022-10-24T16:19:14;27.20;;;2.22;;
5616;SDS011;2830;50.656;7.568;2022-10-24T16:21:40;19.02;;;2.50;;
5616;SDS011;2830;50.656;7.568;2022-10-24T16:24:08;16.37;;;2.03;;
5616;SDS011;2830;50.656;7.568;2022-10-24T16:26:35;20.83;;;2.43;;
5616;SDS011;2830;50.656;7.568;2022-10-24T16:29:02;19.70;;;2.00;;
5616;SDS011;2830;50.656;7.568;2022-10-24T16:31:30;17.70;;;1.80;;
5616;SDS011;2830;50.656;7.568;2022-10-24T16:33:57;24.03;;;2.03;;
5616;SDS011;2830;50.656;7.568;2022-10-24T16:36:24;29.20;;;2.57;;
5616;SDS011;2830;50.656;7.568;2022-10-24T16:38:51;19.40;;;1.93;;
5616;SDS011;2830;50.656;7.568;2022-10-24T16:41:20;21.47;;;2.30;;
5616;SDS011;2830;50.656;7.568;2022-10-24T16:43:49;20.35;;;2.28;;
5616;SDS011;2830;50.656;7.568;2022-10-24T16:46:19;22.60;;;5.50;;
5616;SDS011;2830;50.656;7.568;2022-10-24T16:48:47;28.63;;;6.73;;
5616;SDS011;2830;50.656;7.568;2022-10-24T16:51:16;27.80;;;7.67;;
5616;SDS011;2830;50.656;7.568;2022-10-24T16:53:47;24.00;;;5.20;;
5616;SDS011;2830;50.656;7.568;2022-10-24T16:56:14;17.63;;;2.40;;
5616;SDS011;2830;50.656;7.568;2022-10-24T16:58:41;22.52;;;2.50;;
5616;SDS011;2830;50.656;7.568;2022-10-24T17:01:10;15.50;;;2.23;;
5616;SDS011;2830;50.656;7.568;2022-10-24T17:03:38;23.43;;;3.60;;
5616;SDS011;2830;50.656;7.568;2022-10-24T17:06:05;29.27;;;4.40;;
5616;SDS011;2830;50.656;7.568;2022-10-24T17:08:32;21.90;;;3.23;;
5616;SDS011;2830;50.656;7.568;2022-10-24T17:10:59;22.63;;;2.23;;
5616;SDS011;2830;50.656;7.568;2022-10-24T17:13:26;21.20;;;2.73;;
5616;SDS011;2830;50.656;7.568;2022-10-24T17:15:53;24.10;;;2.50;;
5616;SDS011;2830;50.656;7.568;2022-10-24T17:18:20;20.93;;;2.73;;
5616;SDS011;2830;50.656;7.568;2022-10-24T17:20:48;21.70;;;2.47;;
5616;SDS011;2830;50.656;7.568;2022-10-24T17:23:17;18.83;;;2.30;;